Time;durP1;ratioP1;P1;durP2;ratioP2;P2;SDS_P1;SDS_P2;PMS_P1;PMS_P2;Temp;Humidity;BMP_temperature;BMP_pressure;BME280_temperature;BME280_humidity;BME280_pressure;Samples;Min_cycle;Max_cycle;Signal;HPM_P1;HPM_P2
2021/10/19 00:01:54;;;;;;;14.50;11.85;;;12.40;99.90;;;;;;5019509;28;20094;-86
2021/10/19 00:04:20;;;;;;;14.40;12.30;;;12.40;99.90;;;;;;5035420;28;20030;-86
2021/10/19 00:06:45;;;;;;;15.95;11.80;;;12.40;99.90;;;;;;5010350;28;20032;-86
2021/10/19 00:09:11;;;;;;;13.32;11.32;;;12.60;99.90;;;;;;5028602;28;20037;-86
2021/10/19 00:11:37;;;;;;;13.60;12.20;;;12.40;99.90;;;;;;5018058;28;20518;-86
2021/10/19 00:14:02;;;;;;;14.15;11.55;;;12.40;99.90;;;;;;5031103;28;20026;-86
2021/10/19 00:16:28;;;;;;;13.75;11.10;;;12.30;99.90;;;;;;5031212;28;20490;-86
2021/10/19 00:18:54;;;;;;;16.60;12.10;;;12.40;99.90;;;;;;5020025;28;20104;-86
2021/10/19 00:21:19;;;;;;;15.38;11.13;;;12.30;99.90;;;;;;5022441;28;20117;-86
2021/10/19 00:23:45;;;;;;;14.27;11.13;;;12.70;99.90;;;;;;5024387;28;20490;-86
2021/10/19 00:26:11;;;;;;;15.80;11.38;;;12.40;99.90;;;;;;5012233;28;20033;-86
2021/10/19 00:28:37;;;;;;;14.13;11.60;;;12.40;99.90;;;;;;5031519;28;20076;-86
2021/10/19 00:31:03;;;;;;;13.20;10.85;;;12.30;99.90;;;;;;5032992;28;20028;-87
2021/10/19 00:33:29;;;;;;;13.13;10.75;;;12.70;99.90;;;;;;5026816;28;20033;-86
2021/10/19 00:35:54;;;;;;;13.80;11.02;;;12.30;99.90;;;;;;5027907;28;20042;-86
2021/10/19 00:38:20;;;;;;;14.93;11.30;;;12.20;99.90;;;;;;5004891;28;20037;-87
2021/10/19 00:40:46;;;;;;;14.88;10.90;;;12.20;99.90;;;;;;5033329;28;20092;-87
2021/10/19 00:43:11;;;;;;;12.43;11.05;;;12.20;99.90;;;;;;5033353;28;20041;-87
2021/10/19 00:45:37;;;;;;;12.77;10.70;;;12.30;99.90;;;;;;5017508;28;20026;-86
2021/10/19 00:48:05;;;;;;;11.98;10.30;;;12.20;99.90;;;;;;5026060;28;20040;-86
2021/10/19 00:50:31;;;;;;;11.65;10.45;;;12.20;99.90;;;;;;5031467;28;20037;-85
2021/10/19 00:52:57;;;;;;;13.10;10.82;;;12.20;99.90;;;;;;5017459;28;20172;-87
2021/10/19 00:55:23;;;;;;;13.65;10.65;;;12.30;99.90;;;;;;5016785;28;20048;-86
2021/10/19 00:57:50;;;;;;;14.25;10.90;;;12.30;99.90;;;;;;5034638;28;20017;-86
2021/10/19 01:00:16;;;;;;;12.02;10.30;;;12.00;99.90;;;;;;5024546;28;20040;-86
2021/10/19 01:02:43;;;;;;;12.30;10.55;;;11.90;99.90;;;;;;5023120;28;20030;-86
2021/10/19 01:05:11;;;;;;;12.90;10.85;;;11.90;99.90;;;;;;5031420;28;20025;-86
2021/10/19 01:07:36;;;;;;;12.63;10.50;;;12.10;99.90;;;;;;5016782;28;20026;-87
2021/10/19 01:10:04;;;;;;;11.75;10.55;;;11.90;99.90;;;;;;5015043;28;20506;-86
2021/10/19 01:12:31;;;;;;;11.88;9.95;;;11.60;99.90;;;;;;5021107;28;20469;-86
2021/10/19 01:14:56;;;;;;;12.40;9.95;;;11.60;99.90;;;;;;5021124;28;20036;-86
2021/10/19 01:17:22;;;;;;;11.27;10.18;;;12.00;99.90;;;;;;5020066;28;20033;-86
2021/10/19 01:19:49;;;;;;;12.43;9.55;;;11.90;99.90;;;;;;5031374;28;20037;-86
2021/10/19 01:22:15;;;;;;;11.07;9.93;;;11.60;99.90;;;;;;5014870;28;20026;-86
2021/10/19 01:24:40;;;;;;;11.57;10.00;;;11.90;99.90;;;;;;5029384;28;20517;-86
2021/10/19 01:27:06;;;;;;;14.25;10.38;;;11.70;99.90;;;;;;5027026;28;20021;-86
2021/10/19 01:29:32;;;;;;;12.05;10.82;;;11.40;99.90;;;;;;5022621;28;20410;-86
2021/10/19 01:31:58;;;;;;;16.92;10.35;;;11.60;99.90;;;;;;5012629;28;20106;-86
2021/10/19 01:34:24;;;;;;;14.48;10.73;;;11.60;99.90;;;;;;5012639;28;20076;-86
2021/10/19 01:36:50;;;;;;;13.48;10.65;;;11.70;99.90;;;;;;5020390;28;20488;-86
2021/10/19 01:39:16;;;;;;;11.13;9.77;;;11.80;99.90;;;;;;5014902;28;20092;-86
2021/10/19 01:41:42;;;;;;;11.63;9.95;;;11.80;99.90;;;;;;5020653;28;20498;-86
2021/10/19 01:44:12;;;;;;;10.57;9.48;;;12.20;99.90;;;;;;5029865;28;20096;-86
2021/10/19 01:46:42;;;;;;;12.30;9.95;;;11.80;99.90;;;;;;5016278;28;20084;-86
2021/10/19 01:49:08;;;;;;;14.65;9.77;;;11.60;99.90;;;;;;5016109;28;20022;-87
2021/10/19 01:51:35;;;;;;;11.95;9.75;;;11.60;99.90;;;;;;5018606;28;20034;-86
2021/10/19 01:54:01;;;;;;;13.85;9.52;;;11.50;99.90;;;;;;5022445;28;20037;-87
2021/10/19 01:56:28;;;;;;;12.63;10.43;;;11.50;99.90;;;;;;5030354;28;20041;-87
2021/10/19 01:58:54;;;;;;;12.30;10.32;;;11.60;99.90;;;;;;5030367;28;20086;-87
2021/10/19 02:01:20;;;;;;;11.48;9.55;;;11.60;99.90;;;;;;5018206;28;20489;-86
2021/10/19 02:03:46;;;;;;;13.93;9.65;;;11.70;99.90;;;;;;5018815;28;20056;-87
2021/10/19 02:06:11;;;;;;;11.90;9.13;;;11.70;99.90;;;;;;5017893;28;20026;-87
2021/10/19 02:08:37;;;;;;;11.13;9.43;;;11.70;99.90;;;;;;5019695;28;20517;-87
2021/10/19 02:11:14;;;;;;;;;;;;;;;;;;;;;
2021/10/19 02:13:40;;;;;;;12.05;8.90;;;11.80;99.90;;;;;;5016280;28;20033;-86
2021/10/19 02:16:07;;;;;;;11.02;9.30;;;11.90;99.90;;;;;;5015350;28;20026;-87
2021/10/19 02:18:32;;;;;;;9.85;8.85;;;11.80;99.90;;;;;;5027073;28;20393;-86
2021/10/19 02:20:58;;;;;;;10.20;8.38;;;11.90;99.90;;;;;;5021284;28;20112;-86
2021/10/19 02:23:24;;;;;;;10.10;9.10;;;11.90;99.90;;;;;;5030570;28;20025;-86
2021/10/19 02:25:49;;;;;;;11.32;8.38;;;11.90;99.90;;;;;;5014705;28;20034;-86
2021/10/19 02:28:15;;;;;;;9.88;8.30;;;11.90;99.90;;;;;;5032853;28;20030;-86
2021/10/19 02:30:40;;;;;;;9.75;8.75;;;11.80;99.90;;;;;;5029074;28;20565;-86
2021/10/19 02:33:06;;;;;;;14.68;8.50;;;11.90;99.90;;;;;;5031957;28;20037;-86
2021/10/19 02:35:32;;;;;;;8.98;8.07;;;11.90;99.90;;;;;;5030458;28;20104;-86
2021/10/19 02:38:00;;;;;;;10.13;8.20;;;11.90;99.90;;;;;;5016447;28;20033;-86
2021/10/19 02:40:26;;;;;;;11.05;8.32;;;11.90;99.90;;;;;;5014653;28;20029;-86
2021/10/19 02:42:52;;;;;;;12.40;8.57;;;11.90;99.90;;;;;;5013417;28;20161;-86
2021/10/19 02:45:18;;;;;;;9.93;8.20;;;11.90;99.90;;;;;;5017101;28;20045;-86
2021/10/19 02:47:43;;;;;;;9.15;8.20;;;11.90;99.90;;;;;;5021741;28;20029;-86
2021/10/19 02:50:11;;;;;;;13.88;8.95;;;11.90;99.90;;;;;;5030905;28;20028;-86
2021/10/19 02:52:37;;;;;;;10.65;8.63;;;12.30;99.90;;;;;;5031295;28;20029;-86
2021/10/19 02:55:04;;;;;;;11.48;8.45;;;12.00;99.90;;;;;;5019164;28;20038;-86
2021/10/19 02:57:29;;;;;;;10.85;8.45;;;11.80;99.90;;;;;;5024948;28;20073;-86
2021/10/19 02:59:56;;;;;;;11.77;8.82;;;12.10;99.90;;;;;;5013179;28;20036;-86
2021/10/19 03:02:22;;;;;;;10.93;8.18;;;12.10;99.90;;;;;;5012900;28;20025;-86
2021/10/19 03:04:48;;;;;;;11.20;8.13;;;11.80;99.90;;;;;;5030867;28;20057;-87
2021/10/19 03:07:13;;;;;;;9.93;8.50;;;11.80;99.90;;;;;;5032390;28;20033;-86
2021/10/19 03:09:39;;;;;;;9.93;7.95;;;11.80;99.90;;;;;;5000937;28;20069;-86
2021/10/19 03:12:05;;;;;;;11.98;8.63;;;12.10;99.90;;;;;;5000793;28;20034;-86
2021/10/19 03:14:30;;;;;;;10.43;8.00;;;11.80;99.90;;;;;;5019047;28;20116;-87
2021/10/19 03:16:56;;;;;;;10.90;8.48;;;11.80;99.90;;;;;;5028616;28;20413;-86
2021/10/19 03:19:22;;;;;;;9.90;7.82;;;11.90;99.90;;;;;;4993482;28;20030;-87
2021/10/19 03:21:48;;;;;;;10.80;7.75;;;12.40;99.90;;;;;;5029423;28;20029;-86
2021/10/19 03:24:14;;;;;;;9.65;7.40;;;11.90;99.90;;;;;;5003963;28;20042;-86
2021/10/19 03:26:39;;;;;;;9.45;7.07;;;11.90;99.90;;;;;;5020006;28;20057;-86
2021/10/19 03:29:05;;;;;;;9.23;7.50;;;11.90;99.90;;;;;;5027868;28;20044;-87
2021/10/19 03:31:34;;;;;;;10.50;7.22;;;11.90;99.90;;;;;;4997134;28;20030;-86
2021/10/19 03:34:01;;;;;;;9.07;7.28;;;11.90;99.90;;;;;;5013474;28;20083;-86
2021/10/19 03:36:27;;;;;;;11.13;7.82;;;11.90;99.90;;;;;;5015970;28;20034;-86
2021/10/19 03:38:53;;;;;;;12.43;8.25;;;12.40;99.90;;;;;;5012360;28;20041;-86
2021/10/19 03:41:19;;;;;;;9.43;7.72;;;11.80;99.90;;;;;;5017185;28;20374;-86
2021/10/19 03:43:46;;;;;;;11.73;7.63;;;11.80;99.90;;;;;;5014134;28;20042;-87
2021/10/19 03:46:11;;;;;;;9.55;8.18;;;11.60;99.90;;;;;;5016239;28;20030;-86
2021/10/19 03:48:37;;;;;;;14.40;8.90;;;11.40;99.90;;;;;;5017381;28;20028;-86
2021/10/19 03:51:02;;;;;;;10.55;7.65;;;11.40;99.90;;;;;;5017347;28;20033;-86
2021/10/19 03:53:28;;;;;;;10.88;7.63;;;11.40;99.90;;;;;;5009789;28;20039;-86
2021/10/19 03:55:55;;;;;;;8.30;6.95;;;11.60;99.90;;;;;;4996868;28;20040;-86
2021/10/19 03:58:21;;;;;;;9.75;7.68;;;11.50;99.90;;;;;;5031625;28;20852;-86
2021/10/19 04:00:47;;;;;;;10.38;7.18;;;11.80;99.90;;;;;;5019890;28;20048;-86
2021/10/19 04:03:13;;;;;;;9.30;7.20;;;11.70;99.90;;;;;;5018408;28;20033;-86
2021/10/19 04:05:39;;;;;;;8.73;7.53;;;11.90;99.90;;;;;;5022930;28;20537;-86
2021/10/19 04:08:05;;;;;;;10.75;7.03;;;11.40;99.90;;;;;;5028733;28;20109;-86
2021/10/19 04:10:30;;;;;;;10.05;7.53;;;11.40;99.90;;;;;;5030974;28;20026;-86
2021/10/19 04:12:56;;;;;;;10.57;7.43;;;11.30;99.90;;;;;;5016641;28;20497;-87
2021/10/19 04:15:22;;;;;;;8.25;7.45;;;11.30;99.90;;;;;;5019818;28;20036;-86
2021/10/19 04:17:47;;;;;;;10.45;8.68;;;11.20;99.90;;;;;;5030007;28;20404;-85
2021/10/19 04:20:13;;;;;;;11.70;8.18;;;11.10;99.90;;;;;;5030564;28;20115;-85
2021/10/19 04:22:39;;;;;;;9.23;8.10;;;11.20;99.90;;;;;;5030984;28;20105;-86
2021/10/19 04:25:05;;;;;;;10.70;7.93;;;11.10;99.90;;;;;;5028717;28;20026;-86
2021/10/19 04:27:31;;;;;;;9.38;7.07;;;11.20;99.90;;;;;;5027875;28;20849;-85
2021/10/19 04:29:56;;;;;;;8.68;7.15;;;11.40;99.90;;;;;;5025941;28;20018;-86
2021/10/19 04:32:22;;;;;;;8.68;7.25;;;11.40;99.90;;;;;;5016017;28;20477;-87
2021/10/19 04:34:47;;;;;;;11.05;7.68;;;11.10;99.90;;;;;;5012997;28;20601;-86
2021/10/19 04:37:13;;;;;;;9.20;7.13;;;11.10;99.90;;;;;;5014070;28;20060;-86
2021/10/19 04:39:39;;;;;;;8.45;7.32;;;11.20;99.90;;;;;;5029364;28;20406;-86
2021/10/19 04:42:04;;;;;;;9.38;7.57;;;11.00;99.90;;;;;;5031680;28;20025;-85
2021/10/19 04:44:31;;;;;;;10.98;7.22;;;10.80;99.90;;;;;;5034015;28;20057;-85
2021/10/19 04:46:57;;;;;;;12.60;7.38;;;10.80;99.90;;;;;;5034831;28;20025;-86
2021/10/19 04:49:22;;;;;;;10.73;7.93;;;10.80;99.90;;;;;;5019492;28;20084;-86
2021/10/19 04:51:48;;;;;;;10.35;6.97;;;10.70;99.90;;;;;;5030947;28;20120;-86
2021/10/19 04:54:13;;;;;;;11.63;7.90;;;10.80;99.90;;;;;;5030950;28;20033;-86
2021/10/19 04:56:39;;;;;;;10.07;7.82;;;10.60;99.90;;;;;;5031322;28;20037;-86
2021/10/19 04:59:05;;;;;;;8.73;7.82;;;10.90;99.90;;;;;;5032539;28;20029;-87
2021/10/19 05:01:31;;;;;;;11.85;7.32;;;10.70;99.90;;;;;;5000398;28;20053;-86
2021/10/19 05:03:56;;;;;;;8.60;7.13;;;10.60;99.90;;;;;;5014650;28;20116;-86
2021/10/19 05:06:22;;;;;;;11.35;6.90;;;11.00;99.90;;;;;;5034112;28;20033;-86
2021/10/19 05:08:47;;;;;;;8.48;6.93;;;10.90;99.90;;;;;;5032282;28;20039;-86
2021/10/19 05:11:13;;;;;;;9.18;7.47;;;11.10;99.90;;;;;;5034431;28;20061;-86
2021/10/19 05:13:39;;;;;;;8.82;7.18;;;10.70;99.90;;;;;;5017085;28;20026;-86
2021/10/19 05:16:05;;;;;;;9.98;7.25;;;10.90;99.90;;;;;;5020777;28;20395;-86
2021/10/19 05:18:31;;;;;;;8.82;7.13;;;10.70;99.90;;;;;;5020320;28;20042;-86
2021/10/19 05:20:56;;;;;;;9.07;6.75;;;10.70;99.90;;;;;;5019025;28;20030;-86
2021/10/19 05:23:22;;;;;;;8.30;6.43;;;10.70;99.90;;;;;;5019872;28;20463;-86
2021/10/19 05:25:48;;;;;;;8.70;6.60;;;11.10;99.90;;;;;;5032599;28;20061;-86
2021/10/19 05:28:13;;;;;;;8.82;6.40;;;10.70;99.90;;;;;;5034393;28;20033;-86
2021/10/19 05:30:39;;;;;;;8.27;6.28;;;10.70;99.90;;;;;;5026227;28;20079;-86
2021/10/19 05:33:05;;;;;;;7.38;6.22;;;10.70;99.90;;;;;;5027101;28;20506;-86
2021/10/19 05:35:32;;;;;;;10.95;6.97;;;10.70;99.90;;;;;;5019179;28;20037;-85
2021/10/19 05:37:58;;;;;;;8.85;6.05;;;10.70;99.90;;;;;;5016260;28;20030;-86
2021/10/19 05:40:24;;;;;;;7.53;6.72;;;10.80;99.90;;;;;;5018178;28;20091;-86
2021/10/19 05:42:49;;;;;;;9.07;6.63;;;10.70;99.90;;;;;;5031300;28;20054;-86
2021/10/19 05:45:18;;;;;;;7.53;6.40;;;10.90;99.90;;;;;;5026429;28;20025;-88
2021/10/19 05:47:48;;;;;;;8.40;7.00;;;10.80;99.90;;;;;;5009973;28;20049;-86
2021/10/19 05:50:16;;;;;;;8.13;7.13;;;10.80;99.90;;;;;;5017857;28;20632;-86
2021/10/19 05:52:42;;;;;;;9.77;7.13;;;10.80;99.90;;;;;;5015567;28;20053;-85
2021/10/19 05:55:08;;;;;;;10.45;6.85;;;10.80;99.90;;;;;;5017823;28;20112;-83
2021/10/19 05:57:34;;;;;;;10.90;6.68;;;10.80;99.90;;;;;;5021137;28;20038;-86
2021/10/19 06:00:00;;;;;;;11.38;7.78;;;11.20;99.90;;;;;;5021017;28;20041;-86
2021/10/19 06:02:25;;;;;;;9.73;6.57;;;10.80;99.90;;;;;;5003496;28;20108;-86
2021/10/19 06:04:51;;;;;;;9.65;6.63;;;11.10;99.90;;;;;;5013881;28;20029;-85
2021/10/19 06:07:17;;;;;;;14.70;7.40;;;11.10;99.90;;;;;;4999774;28;20028;-86
2021/10/19 06:09:42;;;;;;;11.05;7.28;;;10.90;99.90;;;;;;5030893;28;20037;-87
2021/10/19 06:12:08;;;;;;;9.02;7.03;;;11.30;99.90;;;;;;5019853;28;20030;-87
2021/10/19 06:14:34;;;;;;;11.18;7.80;;;10.80;99.90;;;;;;5019583;28;20055;-85
2021/10/19 06:17:00;;;;;;;16.02;7.32;;;10.80;99.90;;;;;;5014781;28;20085;-87
2021/10/19 06:19:26;;;;;;;15.40;7.80;;;11.00;99.90;;;;;;5033417;28;20435;-87
2021/10/19 06:21:52;;;;;;;11.18;7.70;;;11.10;99.90;;;;;;5019976;28;20487;-87
2021/10/19 06:24:18;;;;;;;14.52;7.55;;;11.50;99.90;;;;;;5025013;28;20085;-87
2021/10/19 06:26:44;;;;;;;13.35;7.38;;;11.20;99.90;;;;;;5025184;28;20050;-88
2021/10/19 06:29:12;;;;;;;12.93;7.90;;;11.20;99.90;;;;;;5029198;28;20057;-88
2021/10/19 06:31:38;;;;;;;10.45;7.68;;;11.20;99.90;;;;;;4997725;28;20041;-88
2021/10/19 06:34:04;;;;;;;9.32;7.07;;;11.70;99.90;;;;;;5017184;28;20080;-88
2021/10/19 06:36:30;;;;;;;9.55;7.40;;;11.60;99.90;;;;;;5017520;28;20152;-88
2021/10/19 06:38:56;;;;;;;10.63;7.35;;;11.50;99.90;;;;;;5001546;28;20445;-88
2021/10/19 06:41:22;;;;;;;9.70;7.22;;;11.60;99.90;;;;;;5016727;28;20033;-87
2021/10/19 06:43:48;;;;;;;9.65;6.70;;;11.70;99.90;;;;;;4996311;28;20072;-88
2021/10/19 06:46:13;;;;;;;7.90;6.47;;;12.20;99.90;;;;;;5016873;28;20034;-88
2021/10/19 06:48:39;;;;;;;11.93;7.30;;;12.10;99.90;;;;;;4999764;28;20026;-88
2021/10/19 06:51:05;;;;;;;9.05;6.88;;;12.20;99.90;;;;;;5017521;28;20056;-88
2021/10/19 06:53:35;;;;;;;15.50;7.50;;;12.00;99.90;;;;;;5017834;28;20049;-88
2021/10/19 06:56:01;;;;;;;15.15;7.53;;;12.10;99.90;;;;;;5028712;28;20387;-88
2021/10/19 06:58:26;;;;;;;8.25;6.95;;;12.20;99.90;;;;;;5016337;28;20033;-87
2021/10/19 07:00:53;;;;;;;10.55;7.75;;;12.30;99.90;;;;;;5017383;28;20034;-88
2021/10/19 07:03:19;;;;;;;9.40;7.65;;;12.50;99.90;;;;;;5017242;28;20025;-88
2021/10/19 07:05:45;;;;;;;11.52;7.43;;;12.60;99.90;;;;;;5016348;28;20112;-87
2021/10/19 07:08:11;;;;;;;12.15;7.88;;;12.50;99.90;;;;;;5014720;28;20093;-87
2021/10/19 07:10:37;;;;;;;9.75;7.13;;;12.60;99.90;;;;;;5015231;28;20092;-88
2021/10/19 07:13:03;;;;;;;10.75;7.20;;;12.80;99.90;;;;;;5016755;28;20502;-88
2021/10/19 07:15:34;;;;;;;9.90;7.80;;;13.40;99.90;;;;;;5016882;28;20038;-87
2021/10/19 07:18:01;;;;;;;12.95;7.75;;;13.00;99.90;;;;;;5018938;28;20030;-88
2021/10/19 07:20:27;;;;;;;11.98;7.82;;;13.20;99.90;;;;;;5016394;28;20532;-88
2021/10/19 07:22:55;;;;;;;10.70;7.70;;;13.20;99.90;;;;;;5014524;28;20042;-88
2021/10/19 07:25:21;;;;;;;11.88;7.75;;;13.40;99.90;;;;;;5016626;28;20068;-88
2021/10/19 07:27:46;;;;;;;14.25;7.63;;;13.50;99.90;;;;;;5016828;28;20075;-87
2021/10/19 07:30:13;;;;;;;9.73;7.32;;;13.70;99.90;;;;;;5016800;28;20034;-88
2021/10/19 07:32:39;;;;;;;10.45;6.97;;;13.90;99.90;;;;;;5017108;28;20017;-88
2021/10/19 07:35:05;;;;;;;10.85;7.65;;;14.00;99.90;;;;;;5013475;28;20029;-87
2021/10/19 07:37:42;;;;;;;10.95;7.57;;;14.20;99.90;;;;;;4997226;28;20069;-88
2021/10/19 07:40:10;;;;;;;12.85;7.78;;;14.40;99.90;;;;;;5016035;28;20143;-88
2021/10/19 07:42:37;;;;;;;13.35;7.88;;;14.60;99.90;;;;;;5016418;28;20036;-87
2021/10/19 07:45:05;;;;;;;10.45;7.43;;;14.90;99.90;;;;;;5016635;28;20065;-88
2021/10/19 07:47:31;;;;;;;9.13;7.05;;;15.20;99.90;;;;;;5016258;28;20021;-88
2021/10/19 07:49:58;;;;;;;10.10;7.60;;;16.10;99.90;;;;;;5012486;28;20421;-87
2021/10/19 07:52:23;;;;;;;11.20;7.50;;;17.30;99.90;;;;;;5015928;28;20030;-88
2021/10/19 07:54:49;;;;;;;11.30;6.80;;;19.10;99.90;;;;;;5016888;28;20025;-87
2021/10/19 07:57:14;;;;;;;10.13;7.50;;;20.90;99.90;;;;;;5018166;28;20056;-87
2021/10/19 07:59:40;;;;;;;8.88;7.38;;;22.10;99.90;;;;;;5016569;28;20132;-88
2021/10/19 08:02:06;;;;;;;8.35;7.45;;;22.60;99.90;;;;;;4995705;28;20028;-87
2021/10/19 08:04:32;;;;;;;11.40;7.70;;;23.50;99.90;;;;;;5014635;28;20079;-88
2021/10/19 08:06:58;;;;;;;10.65;7.45;;;23.90;99.90;;;;;;4999034;28;20037;-88
2021/10/19 08:09:24;;;;;;;10.32;8.13;;;23.10;99.90;;;;;;5016771;28;20029;-88
2021/10/19 08:11:49;;;;;;;11.25;7.07;;;22.70;99.90;;;;;;5016830;28;20034;-88
2021/10/19 08:14:15;;;;;;;8.02;7.22;;;23.20;99.90;;;;;;5014494;28;20375;-88
2021/10/19 08:16:41;;;;;;;9.25;6.88;;;24.40;99.90;;;;;;5015508;28;20495;-89
2021/10/19 08:19:06;;;;;;;10.77;7.30;;;24.20;99.90;;;;;;5019670;28;20394;-88
2021/10/19 08:21:32;;;;;;;8.85;7.20;;;24.30;99.90;;;;;;5020218;28;20065;-88
2021/10/19 08:23:59;;;;;;;12.65;7.18;;;24.60;99.90;;;;;;5020795;28;20018;-88
2021/10/19 08:26:30;;;;;;;8.88;7.97;;;25.80;99.90;;;;;;5019915;28;20061;-86
2021/10/19 08:29:00;;;;;;;8.88;7.90;;;26.00;99.90;;;;;;5000915;28;20072;-86
2021/10/19 08:31:26;;;;;;;12.52;8.25;;;25.60;99.90;;;;;;5026605;28;20032;-86
2021/10/19 08:33:53;;;;;;;12.32;8.40;;;26.70;99.90;;;;;;5020137;28;20030;-86
2021/10/19 08:36:19;;;;;;;9.70;7.90;;;28.30;99.90;;;;;;5021575;28;20029;-86
2021/10/19 08:38:45;;;;;;;9.45;7.68;;;29.20;99.90;;;;;;5020177;28;20013;-86
2021/10/19 08:41:11;;;;;;;9.80;8.20;;;27.90;99.90;;;;;;5017849;28;20025;-86
2021/10/19 08:43:38;;;;;;;9.52;7.40;;;28.40;99.90;;;;;;5017667;28;20141;-86
2021/10/19 08:46:09;;;;;;;15.52;8.15;;;28.00;99.90;;;;;;5019012;28;20105;-86
2021/10/19 08:48:35;;;;;;;9.93;7.93;;;28.30;99.90;;;;;;5019905;28;20026;-87
2021/10/19 08:51:01;;;;;;;9.00;8.10;;;27.90;99.90;;;;;;5002007;28;20034;-87
2021/10/19 08:53:27;;;;;;;9.80;7.72;;;26.10;99.90;;;;;;5019852;28;20505;-86
2021/10/19 08:55:53;;;;;;;9.48;7.07;;;26.30;99.90;;;;;;5015290;28;20041;-86
2021/10/19 08:58:18;;;;;;;10.73;7.80;;;25.90;99.90;;;;;;5019629;28;20054;-86
2021/10/19 09:00:44;;;;;;;10.18;8.18;;;25.80;99.90;;;;;;5019167;28;20033;-86
2021/10/19 09:03:11;;;;;;;9.18;7.18;;;27.20;99.90;;;;;;5019435;28;20056;-86
2021/10/19 09:05:36;;;;;;;8.50;7.18;;;27.20;99.90;;;;;;5019275;28;20021;-86
2021/10/19 09:08:11;;;;;;;8.00;7.20;;;27.40;99.90;;;;;;5016032;28;20045;-86
2021/10/19 09:10:39;;;;;;;9.75;6.95;;;27.50;99.90;;;;;;5017373;28;20022;-86
2021/10/19 09:13:12;;;;;;;9.45;7.00;;;27.20;99.90;;;;;;5018588;28;20033;-86
2021/10/19 09:15:40;;;;;;;8.20;6.47;;;27.70;99.90;;;;;;5019884;28;20164;-85
2021/10/19 09:18:11;;;;;;;8.05;6.80;;;28.10;99.90;;;;;;5019255;28;20064;-86
2021/10/19 09:20:40;;;;;;;10.95;6.57;;;27.90;99.90;;;;;;5019510;28;20021;-86
2021/10/19 09:23:07;;;;;;;8.38;6.43;;;27.30;99.90;;;;;;5015859;28;20034;-85
2021/10/19 09:25:41;;;;;;;7.20;6.30;;;26.80;99.90;;;;;;5017124;28;20498;-85
2021/10/19 09:28:12;;;;;;;10.93;6.18;;;27.30;99.90;;;;;;5019583;28;20022;-85
2021/10/19 09:30:48;;;;;;;8.02;6.05;;;26.60;99.90;;;;;;5019055;28;20116;-84
2021/10/19 09:33:19;;;;;;;9.77;6.78;;;25.60;99.90;;;;;;5018809;28;20060;-85
2021/10/19 09:35:48;;;;;;;7.05;6.35;;;24.90;99.90;;;;;;5018668;28;20119;-86
2021/10/19 09:38:14;;;;;;;8.65;6.60;;;23.70;99.90;;;;;;5016718;28;20130;-86
2021/10/19 09:40:51;;;;;;;9.77;6.80;;;24.20;99.90;;;;;;5016526;28;20629;-86
2021/10/19 09:43:25;;;;;;;9.85;6.05;;;24.40;99.90;;;;;;5017063;28;20480;-87
2021/10/19 09:45:55;;;;;;;11.93;6.45;;;23.80;99.90;;;;;;5019525;28;20046;-85
2021/10/19 09:48:26;;;;;;;8.40;6.30;;;24.10;99.90;;;;;;5018421;28;20036;-86
2021/10/19 09:50:53;;;;;;;6.78;6.07;;;24.30;99.90;;;;;;5018721;28;20034;-89
2021/10/19 09:53:22;;;;;;;8.63;5.88;;;23.30;99.90;;;;;;5018228;28;20030;-88
2021/10/19 09:55:52;;;;;;;7.82;5.93;;;23.80;99.90;;;;;;5015134;28;20668;-89
2021/10/19 09:58:19;;;;;;;7.57;6.22;;;24.10;99.90;;;;;;5017357;28;20438;-85
2021/10/19 10:00:45;;;;;;;7.20;6.50;;;24.60;99.90;;;;;;5018619;28;20030;-86
2021/10/19 10:03:12;;;;;;;10.07;6.25;;;25.50;99.90;;;;;;5018725;28;20037;-85
2021/10/19 10:05:37;;;;;;;8.82;5.82;;;26.90;99.90;;;;;;5018729;28;20025;-85
2021/10/19 10:08:05;;;;;;;7.10;6.13;;;27.80;99.90;;;;;;5014689;28;20521;-85
2021/10/19 10:10:31;;;;;;;7.15;5.78;;;27.20;99.90;;;;;;5016407;28;20056;-86
2021/10/19 10:13:01;;;;;;;6.75;5.85;;;27.30;99.90;;;;;;5017896;28;20065;-86
2021/10/19 10:15:32;;;;;;;6.10;5.50;;;28.20;99.90;;;;;;5018660;28;20038;-85
2021/10/19 10:18:01;;;;;;;7.82;5.97;;;28.20;99.90;;;;;;5018109;28;20029;-85
2021/10/19 10:20:47;;;;;;;7.18;6.03;;;27.00;99.90;;;;;;5000255;28;20040;-85
2021/10/19 10:23:23;;;;;;;6.28;5.68;;;27.50;99.90;;;;;;5002604;28;20029;-85
2021/10/19 10:25:54;;;;;;;7.68;5.75;;;25.90;99.90;;;;;;5014373;28;20038;-85
2021/10/19 10:28:31;;;;;;;6.88;5.97;;;26.00;99.90;;;;;;5017323;28;20491;-85
2021/10/19 10:31:04;;;;;;;9.07;5.75;;;25.70;99.90;;;;;;5017978;28;20524;-85
2021/10/19 10:33:35;;;;;;;6.53;5.43;;;26.20;99.90;;;;;;5019078;28;20040;-86
2021/10/19 10:36:05;;;;;;;8.02;6.15;;;27.40;99.90;;;;;;5017723;28;20041;-85
2021/10/19 10:38:31;;;;;;;6.32;5.72;;;26.80;99.90;;;;;;5018363;28;20433;-85
2021/10/19 10:41:11;;;;;;;7.07;5.40;;;28.60;99.90;;;;;;5013440;28;20037;-85
2021/10/19 10:43:38;;;;;;;6.65;5.22;;;28.60;99.90;;;;;;5026162;28;20506;-85
2021/10/19 10:46:20;;;;;;;5.90;5.40;;;28.20;99.90;;;;;;5017808;28;20507;-86
2021/10/19 10:48:47;;;;;;;6.72;5.82;;;28.40;99.90;;;;;;5017931;28;20495;-85
2021/10/19 10:51:14;;;;;;;6.57;5.20;;;30.60;99.90;;;;;;5017513;28;20038;-85
2021/10/19 10:53:45;;;;;;;7.50;5.32;;;31.20;99.90;;;;;;5017283;28;20017;-85
2021/10/19 10:56:12;;;;;;;6.13;5.10;;;32.40;99.90;;;;;;5014559;28;20510;-86
2021/10/19 10:58:40;;;;;;;5.78;4.95;;;31.40;99.90;;;;;;5015236;28;20045;-85
2021/10/19 11:01:28;;;;;;;5.63;4.90;;;30.60;99.90;;;;;;5016602;28;20030;-85
2021/10/19 11:04:07;;;;;;;6.20;4.82;;;28.90;99.90;;;;;;5019038;28;20072;-85
2021/10/19 11:06:36;;;;;;;5.22;4.75;;;29.80;99.90;;;;;;5017696;28;20088;-85
2021/10/19 11:09:11;;;;;;;7.15;4.90;;;30.40;99.90;;;;;;5017478;28;20497;-85
2021/10/19 11:11:39;;;;;;;6.22;4.65;;;30.00;99.90;;;;;;5017975;28;20055;-85
2021/10/19 11:14:04;;;;;;;5.57;4.53;;;31.30;99.90;;;;;;5013377;28;20068;-85
2021/10/19 11:16:52;;;;;;;8.45;4.57;;;32.30;99.90;;;;;;5015462;28;20037;-85
2021/10/19 11:19:20;;;;;;;4.75;4.35;;;33.20;99.90;;;;;;5010854;28;20100;-85
2021/10/19 11:21:50;;;;;;;6.03;4.43;;;31.50;99.90;;;;;;4999444;28;20041;-85
2021/10/19 11:24:17;;;;;;;6.03;5.00;;;31.60;99.90;;;;;;5017175;28;20046;-85
2021/10/19 11:26:43;;;;;;;5.25;4.50;;;31.90;99.90;;;;;;5017033;28;20028;-85
2021/10/19 11:29:09;;;;;;;5.88;4.38;;;30.50;99.90;;;;;;5014256;28;20462;-85
2021/10/19 11:31:37;;;;;;;5.25;4.35;;;30.50;99.90;;;;;;5014451;28;20077;-85
2021/10/19 11:34:03;;;;;;;6.35;4.43;;;29.60;99.90;;;;;;5016849;28;20037;-85
2021/10/19 11:36:29;;;;;;;5.38;4.85;;;30.70;99.90;;;;;;5016805;28;20149;-86
2021/10/19 11:38:58;;;;;;;5.13;4.60;;;33.50;99.90;;;;;;5017117;28;20548;-85
2021/10/19 11:41:27;;;;;;;4.90;4.40;;;32.80;99.90;;;;;;5015724;28;20402;-86
2021/10/19 11:43:58;;;;;;;7.30;4.60;;;34.40;99.90;;;;;;5012263;28;20703;-86
2021/10/19 11:46:27;;;;;;;5.30;4.70;;;33.50;99.90;;;;;;5023497;28;20048;-86
2021/10/19 11:48:55;;;;;;;5.50;4.35;;;31.50;99.90;;;;;;5017879;28;20088;-85
2021/10/19 11:51:23;;;;;;;4.40;4.00;;;32.30;99.90;;;;;;5017235;28;20029;-85
2021/10/19 11:53:49;;;;;;;4.82;4.32;;;30.40;99.90;;;;;;5016499;28;20028;-85
2021/10/19 11:56:17;;;;;;;5.40;4.35;;;32.20;99.90;;;;;;4996990;28;20065;-86
2021/10/19 11:58:53;;;;;;;5.63;3.85;;;33.00;99.90;;;;;;5014354;28;20022;-86
2021/10/19 12:01:24;;;;;;;4.38;3.95;;;33.30;99.90;;;;;;5015919;28;20474;-86
2021/10/19 12:03:58;;;;;;;4.60;4.20;;;35.70;99.90;;;;;;5016504;28;20022;-85
2021/10/19 12:06:26;;;;;;;5.00;4.50;;;35.20;99.90;;;;;;5016572;28;20029;-85
2021/10/19 12:08:51;;;;;;;4.07;3.40;;;34.30;99.90;;;;;;5016565;28;20029;-85
2021/10/19 12:11:22;;;;;;;4.20;3.90;;;31.90;99.90;;;;;;5015191;28;20061;-85
2021/10/19 12:13:59;;;;;;;5.32;3.97;;;32.90;99.90;;;;;;5013170;28;20498;-85
2021/10/19 12:16:29;;;;;;;5.25;3.65;;;30.80;99.90;;;;;;5022789;28;20037;-85
2021/10/19 12:18:58;;;;;;;4.63;3.80;;;31.80;99.90;;;;;;5016590;28;20037;-86
2021/10/19 12:21:25;;;;;;;4.75;3.97;;;31.40;99.90;;;;;;5016644;28;20120;-85
2021/10/19 12:24:10;;;;;;;4.32;4.03;;;30.50;99.90;;;;;;5016017;28;20022;-85
2021/10/19 12:26:37;;;;;;;5.22;4.20;;;31.90;99.90;;;;;;5015886;28;20042;-85
2021/10/19 12:29:04;;;;;;;4.45;3.80;;;30.00;99.90;;;;;;5014360;28;20025;-85
2021/10/19 12:31:33;;;;;;;4.45;3.88;;;30.30;99.90;;;;;;5014536;28;20116;-85
2021/10/19 12:34:02;;;;;;;4.55;3.63;;;31.10;99.90;;;;;;5016659;28;20108;-85
2021/10/19 12:36:34;;;;;;;4.05;3.65;;;30.90;99.90;;;;;;5016208;28;20042;-85
2021/10/19 12:39:05;;;;;;;5.50;4.20;;;31.20;99.90;;;;;;5016151;28;20029;-85
2021/10/19 12:41:35;;;;;;;4.80;3.50;;;32.30;99.90;;;;;;5016755;28;20029;-85
2021/10/19 12:44:02;;;;;;;3.92;3.53;;;32.30;99.90;;;;;;5012181;28;20124;-85